Česky Dansk Deutsch English Español Suomi Français Magyar Italiano Nederlands norsk Polski Português svenska Türkçe

 

Het Weer

Palermo / Punta Raisi (Italië)

06:50, 7 augustus 2016 (GMT)

NWNNE
WE
SWSSE
Home            
Palermo / Punta Raisi Palermo Boccadifalco Ustica Trapani / Birgi Enna Gela Catania / Sigonella Pantelleria Catania / Fontanarossa Comiso As Usaf Messina Reggio Calabria Kelibia Cozzo Spadaro Capo Palinuro Capri Lamezia Terme Bonifati Luqa Tunis-Carthage Lampedusa Ponza Bizerte

Om een weerknop op uw website of weblog te plaatsen, copieer onderstaande code en plak die in uw pagina. In het eerste vakje staat HTML-code, in het tweede vakje UBB-code.


Add to Google

Details

Wind speed:2 bf, 5 kn, 2.6 m/s, 5.8 miles/h, 9.3 km/h
Wind direction:N, 350° - NE, 050°
Visibility:Greater than 10000 m, 10 km, 32800 ft, 6.2 miles
Clouds:Aufgelockert bewölkt at 2000 ft, 610 m
Temperature:26°C, 79°F
Gefühlte Temperatur:27°C, 81°F
Dew-point:19°C, 66°F
Atmospheric pressure:1015 hPa, 761.3 mmHg, 29.97 inHg, 1.002 atm
Relative humidity:65.4 %
METAR:LICJ 070650Z 01005KT 350V050 9999 SCT020 26/19 Q1015

Snelkoppelingen

Actuele weersinformatie van de hele wereld. Voeg locaties toe met het plus (+) symbool. Deze snelkoppelingen kunnen worden toegevoegd aan Google.

Lid van de Technetium groep

website free tracking
StatCounter NetStat W3C Validator

03-10-2022 06:30:13
astro.technetium.be money.technetium.be phote.technetium.be tafeltennistafel.technetium.be www.ligfiets.net